createdAt,value
2023-02-09T00:01:11.896Z,78.97
2023-02-09T00:03:38.692Z,83.43
2023-02-09T00:06:08.481Z,77.20
2023-02-09T00:08:35.718Z,79.50
2023-02-09T00:11:20.874Z,79.77
2023-02-09T00:13:47.637Z,79.80
2023-02-09T00:16:16.912Z,81.23
2023-02-09T00:18:46.154Z,78.03
2023-02-09T00:21:12.981Z,78.10
2023-02-09T00:23:40.597Z,80.40
2023-02-09T00:26:10.257Z,79.47
2023-02-09T00:28:37.129Z,79.57
2023-02-09T00:31:10.673Z,77.43
2023-02-09T00:33:37.668Z,80.20
2023-02-09T00:36:06.288Z,82.30
2023-02-09T00:38:33.738Z,80.00
2023-02-09T00:41:00.575Z,87.30
2023-02-09T00:43:27.415Z,81.10
2023-02-09T00:45:54.612Z,77.07
2023-02-09T00:48:21.555Z,80.40
2023-02-09T00:50:49.781Z,79.23
2023-02-09T00:53:16.541Z,80.03
2023-02-09T00:55:45.763Z,76.67
2023-02-09T00:58:12.658Z,85.47
2023-02-09T01:00:39.431Z,79.87
2023-02-09T01:03:08.442Z,81.17
2023-02-09T01:05:40.669Z,78.13
2023-02-09T01:08:07.565Z,78.90
2023-02-09T01:10:36.542Z,84.93
2023-02-09T01:13:03.311Z,74.07
2023-02-09T01:15:30.117Z,76.80
2023-02-09T01:17:58.590Z,80.57
2023-02-09T01:20:27.529Z,78.20
2023-02-09T01:22:54.390Z,77.17
2023-02-09T01:25:21.271Z,77.43
2023-02-09T01:27:48.051Z,81.67
2023-02-09T01:30:14.990Z,71.53
2023-02-09T01:32:44.391Z,73.90
2023-02-09T01:35:11.445Z,80.67
2023-02-09T01:37:40.454Z,72.40
2023-02-09T01:40:07.928Z,78.87
2023-02-09T01:42:39.494Z,73.83
2023-02-09T01:45:21.468Z,81.97
2023-02-09T01:47:54.440Z,73.80
2023-02-09T01:50:25.524Z,76.40
2023-02-09T01:52:54.806Z,83.87
2023-02-09T01:55:24.487Z,74.83
2023-02-09T01:58:00.042Z,84.70
2023-02-09T02:00:29.342Z,73.07
2023-02-09T02:03:04.742Z,79.00
2023-02-09T02:05:35.015Z,76.67
2023-02-09T02:08:17.602Z,79.23
2023-02-09T02:10:47.199Z,73.17
2023-02-09T02:13:14.109Z,81.47
2023-02-09T02:16:03.046Z,72.53
2023-02-09T02:18:35.310Z,71.67
2023-02-09T02:21:11.293Z,73.83
2023-02-09T02:24:13.831Z,71.87
2023-02-09T02:26:58.889Z,76.17
2023-02-09T02:30:05.454Z,75.97
2023-02-09T02:32:44.561Z,74.07
2023-02-09T02:35:36.860Z,67.23
2023-02-09T02:38:18.201Z,80.13
2023-02-09T02:41:05.281Z,70.67
2023-02-09T02:43:55.745Z,72.17
2023-02-09T02:46:57.301Z,76.13
2023-02-09T02:49:38.298Z,74.27
2023-02-09T02:52:08.972Z,75.90
2023-02-09T02:54:42.681Z,76.30
2023-02-09T02:57:14.594Z,71.80
2023-02-09T02:59:47.736Z,75.90
2023-02-09T03:02:30.961Z,81.00
2023-02-09T03:04:59.994Z,71.13
2023-02-09T03:07:29.267Z,74.90
2023-02-09T03:09:58.286Z,71.00
2023-02-09T03:12:53.775Z,74.63
2023-02-09T03:15:51.217Z,69.43
2023-02-09T03:18:57.233Z,76.27
2023-02-09T03:21:45.124Z,74.30
2023-02-09T03:24:32.541Z,71.63
2023-02-09T03:27:25.245Z,74.10
2023-02-09T03:29:54.304Z,74.03
2023-02-09T03:32:21.339Z,76.87
2023-02-09T03:34:48.166Z,71.87
2023-02-09T03:37:14.999Z,78.77
2023-02-09T03:39:43.940Z,72.30
2023-02-09T03:42:12.910Z,71.30
2023-02-09T03:44:39.677Z,77.07
2023-02-09T03:47:10.455Z,76.70
2023-02-09T03:49:40.633Z,80.77
2023-02-09T03:52:13.590Z,74.00
2023-02-09T03:54:40.443Z,75.33
2023-02-09T03:57:07.492Z,75.13
2023-02-09T03:59:37.738Z,75.63
2023-02-09T04:02:08.124Z,70.10
2023-02-09T04:04:34.975Z,73.53
2023-02-09T04:07:04.132Z,75.30
2023-02-09T04:09:37.582Z,71.63
2023-02-09T04:12:04.681Z,72.20
2023-02-09T04:14:31.492Z,70.50
2023-02-09T04:17:00.742Z,78.83
2023-02-09T04:19:29.767Z,76.43
2023-02-09T04:21:56.552Z,74.03
2023-02-09T04:24:23.404Z,73.40
2023-02-09T04:26:50.118Z,73.93
2023-02-09T04:29:16.911Z,72.87
2023-02-09T04:31:46.084Z,72.83
2023-02-09T04:34:21.166Z,78.13
2023-02-09T04:36:47.945Z,75.20
2023-02-09T04:39:14.786Z,67.60
2023-02-09T04:41:41.524Z,79.23
2023-02-09T04:44:11.112Z,70.00
2023-02-09T04:46:37.886Z,82.60
2023-02-09T04:49:06.897Z,72.20
2023-02-09T04:51:33.677Z,74.37
2023-02-09T04:54:04.915Z,74.83
2023-02-09T04:56:31.668Z,77.97
2023-02-09T04:59:17.314Z,68.53
2023-02-09T05:01:46.683Z,66.53
2023-02-09T05:04:13.434Z,79.50
2023-02-09T05:06:40.206Z,67.20
2023-02-09T05:09:06.974Z,76.43
2023-02-09T05:11:36.213Z,79.80
2023-02-09T05:14:05.247Z,71.57
2023-02-09T05:16:32.041Z,75.53
2023-02-09T05:18:58.861Z,81.73
2023-02-09T05:21:25.653Z,71.90
2023-02-09T05:23:52.400Z,70.90
2023-02-09T05:26:21.425Z,73.23
2023-02-09T05:28:48.177Z,80.50
2023-02-09T05:31:18.046Z,73.23
2023-02-09T05:33:44.975Z,75.30
2023-02-09T05:36:12.905Z,77.43
2023-02-09T05:38:40.023Z,77.43
2023-02-09T05:41:36.623Z,81.20
2023-02-09T05:44:07.912Z,73.73
2023-02-09T05:46:34.657Z,80.83
2023-02-09T05:49:01.377Z,80.03
2023-02-09T05:51:28.127Z,85.63
2023-02-09T05:53:57.386Z,78.47
2023-02-09T05:56:26.375Z,84.33
2023-02-09T05:58:53.126Z,73.53
2023-02-09T06:01:22.118Z,84.30
2023-02-09T06:03:48.923Z,71.27
2023-02-09T06:06:18.106Z,75.40
2023-02-09T06:08:44.889Z,78.83
2023-02-09T06:11:11.638Z,74.57
2023-02-09T06:13:38.384Z,76.57
2023-02-09T06:16:05.373Z,85.67
2023-02-09T06:18:32.156Z,71.93
2023-02-09T06:20:59.223Z,83.90
2023-02-09T06:23:25.981Z,79.27
2023-02-09T06:25:53.251Z,78.80
2023-02-09T06:28:20.627Z,77.00
2023-02-09T06:30:52.988Z,77.43
2023-02-09T06:33:24.684Z,78.60
2023-02-09T06:35:52.399Z,76.67
2023-02-09T06:38:19.371Z,74.47
2023-02-09T06:40:47.241Z,80.00
2023-02-09T06:43:16.565Z,73.90
2023-02-09T06:45:43.387Z,81.43
2023-02-09T06:48:12.581Z,82.53
2023-02-09T06:50:39.939Z,77.17
2023-02-09T06:53:06.852Z,81.37
2023-02-09T06:55:34.185Z,83.03
2023-02-09T06:58:03.584Z,78.60
2023-02-09T07:00:32.897Z,88.77
2023-02-09T07:02:59.864Z,76.63
2023-02-09T07:05:31.483Z,75.23
2023-02-09T07:07:58.341Z,76.13
2023-02-09T07:10:27.709Z,81.07
2023-02-09T07:12:57.322Z,78.97
2023-02-09T07:15:24.138Z,77.57
2023-02-09T07:17:53.278Z,84.03
2023-02-09T07:20:22.270Z,78.93
2023-02-09T07:22:51.509Z,77.53
2023-02-09T07:25:18.328Z,80.73
2023-02-09T07:27:45.250Z,81.07
2023-02-09T07:30:17.669Z,73.27
2023-02-09T07:32:44.499Z,86.57
2023-02-09T07:35:11.247Z,74.97
2023-02-09T07:37:38.004Z,80.37
2023-02-09T07:40:05.032Z,91.47
2023-02-09T07:42:31.864Z,76.80
2023-02-09T07:44:58.643Z,84.13
2023-02-09T07:47:25.436Z,77.03
2023-02-09T07:49:52.269Z,84.93
2023-02-09T07:52:21.386Z,74.70
2023-02-09T07:54:50.574Z,77.67
2023-02-09T07:57:17.341Z,80.80
2023-02-09T07:59:44.120Z,74.83
2023-02-09T08:02:17.645Z,88.17
2023-02-09T08:04:44.764Z,86.87
2023-02-09T08:07:11.560Z,77.03
2023-02-09T08:09:38.308Z,81.60
2023-02-09T08:12:05.397Z,77.00
2023-02-09T08:14:39.961Z,78.53
2023-02-09T08:17:20.471Z,82.47
2023-02-09T08:19:50.373Z,80.03
2023-02-09T08:22:17.153Z,79.23
2023-02-09T08:24:43.912Z,78.80
2023-02-09T08:27:10.718Z,74.30
2023-02-09T08:29:37.490Z,78.17
2023-02-09T08:32:06.548Z,87.93
2023-02-09T08:34:33.341Z,78.10
2023-02-09T08:37:00.138Z,78.03
2023-02-09T08:39:26.923Z,82.17
2023-02-09T08:41:53.689Z,77.70
2023-02-09T08:44:20.483Z,77.50
2023-02-09T08:46:49.728Z,79.70
2023-02-09T08:49:18.813Z,91.23
2023-02-09T08:51:47.763Z,81.63
2023-02-09T08:54:15.876Z,83.50
2023-02-09T08:56:44.203Z,84.47
2023-02-09T08:59:11.104Z,86.03
2023-02-09T09:01:40.495Z,77.33
2023-02-09T09:04:10.098Z,88.77
2023-02-09T09:06:37.091Z,77.87
2023-02-09T09:09:06.438Z,82.80
2023-02-09T09:11:33.281Z,78.40
2023-02-09T09:14:00.063Z,78.43
2023-02-09T09:16:26.962Z,84.63
2023-02-09T09:18:53.764Z,78.47
2023-02-09T09:21:23.011Z,86.97
2023-02-09T09:23:49.941Z,81.83
2023-02-09T09:26:17.100Z,75.77
2023-02-09T09:28:46.620Z,76.07
2023-02-09T09:31:14.941Z,72.70
2023-02-09T09:33:41.973Z,78.87
2023-02-09T09:36:11.342Z,79.13
2023-02-09T09:38:38.789Z,82.13
2023-02-09T09:41:06.529Z,71.73
2023-02-09T09:43:39.852Z,76.33
2023-02-09T09:46:09.929Z,76.00
2023-02-09T09:48:39.536Z,75.53
2023-02-09T09:51:12.987Z,68.60
2023-02-09T09:53:39.759Z,71.63
2023-02-09T09:56:10.158Z,65.93
2023-02-09T09:58:40.006Z,68.43
2023-02-09T10:01:10.423Z,72.00
2023-02-09T10:03:41.967Z,76.77
2023-02-09T10:06:18.556Z,66.30
2023-02-09T10:09:04.004Z,65.50
2023-02-09T10:11:43.917Z,68.20
2023-02-09T10:14:10.810Z,76.83
2023-02-09T10:16:40.825Z,77.00
2023-02-09T10:19:29.252Z,70.43
2023-02-09T10:21:58.692Z,62.40
2023-02-09T10:24:27.270Z,63.97
2023-02-09T10:27:15.455Z,56.97
2023-02-09T10:29:42.478Z,58.27
2023-02-09T10:32:29.045Z,57.50
2023-02-09T10:35:04.272Z,51.83
2023-02-09T10:37:36.452Z,58.23
2023-02-09T10:40:25.075Z,60.70
2023-02-09T10:43:05.809Z,52.97
2023-02-09T10:45:40.867Z,59.37
2023-02-09T10:48:13.880Z,58.57
2023-02-09T10:50:57.263Z,55.00
2023-02-09T10:53:26.853Z,49.73
2023-02-09T10:56:12.162Z,48.50
2023-02-09T10:58:38.935Z,55.53
2023-02-09T11:01:11.820Z,54.77
2023-02-09T11:04:05.944Z,59.83
2023-02-09T11:06:52.434Z,54.63
2023-02-09T11:09:29.784Z,56.07
2023-02-09T11:11:56.616Z,51.97
2023-02-09T11:14:30.664Z,56.03
2023-02-09T11:17:36.417Z,56.97
2023-02-09T11:20:04.740Z,57.27
2023-02-09T11:22:49.968Z,54.23
2023-02-09T11:25:35.130Z,56.50
2023-02-09T11:28:16.317Z,55.43
2023-02-09T11:31:04.083Z,59.13
2023-02-09T11:33:44.032Z,54.03
2023-02-09T11:36:47.064Z,47.03
2023-02-09T11:40:12.190Z,55.90
2023-02-09T11:42:44.318Z,49.50
2023-02-09T11:45:46.276Z,54.63
2023-02-09T11:48:20.336Z,51.40
2023-02-09T11:51:16.649Z,50.93
2023-02-09T11:54:03.906Z,41.77
2023-02-09T11:56:31.829Z,48.83
2023-02-09T11:59:08.254Z,46.07
2023-02-09T12:01:56.763Z,42.43
2023-02-09T12:04:42.540Z,47.97
2023-02-09T12:07:20.617Z,41.03
2023-02-09T12:10:05.485Z,44.70
2023-02-09T12:12:44.419Z,44.73
2023-02-09T12:15:17.456Z,43.60
2023-02-09T12:17:51.497Z,40.50
2023-02-09T12:20:29.153Z,41.50
2023-02-09T12:23:02.951Z,37.60
2023-02-09T12:25:33.817Z,41.83
2023-02-09T12:28:11.997Z,37.53
2023-02-09T12:30:44.815Z,39.93
2023-02-09T12:33:23.462Z,40.80
2023-02-09T12:36:13.794Z,38.67
2023-02-09T12:38:40.561Z,39.17
2023-02-09T12:41:10.222Z,38.83
2023-02-09T12:43:42.110Z,40.97
2023-02-09T12:46:18.279Z,31.60
2023-02-09T12:48:52.094Z,39.10
2023-02-09T12:51:41.688Z,31.03
2023-02-09T12:54:48.090Z,32.67
2023-02-09T12:57:23.894Z,30.93
2023-02-09T12:59:51.072Z,35.57
2023-02-09T13:02:59.937Z,37.33
2023-02-09T13:05:33.712Z,33.83
2023-02-09T13:08:18.496Z,35.20
2023-02-09T13:10:58.481Z,31.07
2023-02-09T13:13:58.406Z,34.27
2023-02-09T13:16:25.225Z,31.50
2023-02-09T13:19:11.256Z,33.03
2023-02-09T13:21:53.477Z,28.93
2023-02-09T13:24:23.406Z,29.57
2023-02-09T13:26:53.508Z,28.60
2023-02-09T13:29:22.235Z,31.00
2023-02-09T13:31:54.988Z,31.87
2023-02-09T13:34:30.376Z,31.67
2023-02-09T13:37:06.315Z,28.40
2023-02-09T13:39:37.010Z,28.67
2023-02-09T13:42:14.622Z,31.37
2023-02-09T13:44:44.438Z,30.37
2023-02-09T13:47:15.734Z,28.60
2023-02-09T13:49:42.737Z,27.60
2023-02-09T13:52:22.221Z,35.93
2023-02-09T13:54:52.888Z,32.27
2023-02-09T13:57:32.510Z,32.20
2023-02-09T14:00:10.008Z,27.73
2023-02-09T14:02:39.075Z,25.30
2023-02-09T14:05:08.357Z,28.90
2023-02-09T14:07:36.009Z,27.03
2023-02-09T14:10:11.720Z,31.80
2023-02-09T14:13:06.155Z,31.67
2023-02-09T14:15:51.387Z,31.50
2023-02-09T14:18:46.038Z,25.77
2023-02-09T14:21:15.971Z,30.03
2023-02-09T14:23:44.600Z,34.27
2023-02-09T14:26:14.577Z,29.63
2023-02-09T14:28:45.741Z,36.27
2023-02-09T14:31:22.778Z,40.97
2023-02-09T14:33:55.083Z,34.03
2023-02-09T14:36:32.625Z,37.17
2023-02-09T14:39:12.904Z,32.23
2023-02-09T14:41:39.712Z,32.50
2023-02-09T14:44:06.435Z,33.50
2023-02-09T14:46:58.958Z,29.50
2023-02-09T14:49:25.851Z,31.60
2023-02-09T14:52:10.787Z,28.70
2023-02-09T14:54:44.516Z,33.67
2023-02-09T14:57:11.409Z,32.30
2023-02-09T14:59:38.192Z,29.47
2023-02-09T15:02:22.266Z,30.33
2023-02-09T15:04:49.097Z,32.00
2023-02-09T15:07:19.477Z,28.40
2023-02-09T15:09:46.395Z,34.30
2023-02-09T15:12:24.224Z,30.27
2023-02-09T15:14:54.638Z,39.03
2023-02-09T15:17:28.103Z,32.17
2023-02-09T15:19:57.976Z,30.93
2023-02-09T15:22:27.234Z,33.60
2023-02-09T15:24:54.665Z,36.17
2023-02-09T15:27:29.531Z,36.50
2023-02-09T15:30:01.674Z,32.73
2023-02-09T15:32:29.926Z,36.00
2023-02-09T15:34:56.665Z,35.27
2023-02-09T15:37:24.395Z,34.03
2023-02-09T15:39:53.971Z,36.70
2023-02-09T15:42:39.121Z,36.07
2023-02-09T15:45:41.155Z,33.33
2023-02-09T15:48:08.229Z,29.83
2023-02-09T15:50:37.620Z,37.30
2023-02-09T15:53:05.879Z,35.80
2023-02-09T15:55:32.792Z,37.57
2023-02-09T15:58:02.380Z,36.00
2023-02-09T16:00:29.877Z,40.10
2023-02-09T16:02:58.458Z,45.17
2023-02-09T16:05:26.910Z,49.00
2023-02-09T16:07:53.839Z,39.20
2023-02-09T16:10:26.112Z,42.63
2023-02-09T16:12:53.029Z,43.53
2023-02-09T16:15:21.292Z,46.30
2023-02-09T16:17:48.173Z,46.73
2023-02-09T16:20:17.754Z,45.17
2023-02-09T16:22:48.651Z,39.17
2023-02-09T16:25:20.981Z,46.60
2023-02-09T16:27:47.858Z,40.17
2023-02-09T16:30:20.112Z,48.57
2023-02-09T16:32:47.135Z,46.57
2023-02-09T16:35:17.165Z,50.50
2023-02-09T16:37:45.162Z,41.23
2023-02-09T16:40:31.877Z,54.97
2023-02-09T16:42:59.940Z,47.37
2023-02-09T16:45:29.763Z,46.27
2023-02-09T16:47:59.084Z,45.83
2023-02-09T16:50:27.447Z,41.77
2023-02-09T16:52:57.233Z,44.73
2023-02-09T16:55:28.319Z,46.17
2023-02-09T16:57:56.122Z,51.63
2023-02-09T17:00:29.794Z,42.50
2023-02-09T17:03:16.430Z,48.57
2023-02-09T17:05:53.453Z,44.30
2023-02-09T17:08:25.386Z,47.97
2023-02-09T17:10:54.792Z,43.30
2023-02-09T17:13:24.180Z,51.10
2023-02-09T17:15:52.729Z,46.10
2023-02-09T17:18:24.549Z,50.37
2023-02-09T17:21:02.224Z,51.13
2023-02-09T17:23:29.473Z,53.83
2023-02-09T17:25:56.424Z,50.00
2023-02-09T17:28:24.411Z,47.50
2023-02-09T17:30:51.888Z,49.67
2023-02-09T17:33:26.559Z,47.93
2023-02-09T17:36:22.819Z,47.67
2023-02-09T17:38:41.540Z,51.67
2023-02-09T17:41:22.780Z,54.77
2023-02-09T17:43:52.243Z,53.67
2023-02-09T17:46:19.367Z,50.63
2023-02-09T17:48:46.888Z,47.83
2023-02-09T17:51:31.839Z,47.57
2023-02-09T17:53:59.036Z,48.70
2023-02-09T17:56:26.018Z,46.23
2023-02-09T17:58:52.832Z,47.13
2023-02-09T18:01:27.070Z,48.70
2023-02-09T18:03:58.726Z,44.33
2023-02-09T18:06:33.602Z,46.20
2023-02-09T18:09:01.788Z,46.77
2023-02-09T18:11:45.042Z,51.00
2023-02-09T18:14:16.107Z,52.77
2023-02-09T18:16:46.813Z,47.63
2023-02-09T18:19:14.005Z,46.63
2023-02-09T18:21:47.976Z,55.70
2023-02-09T18:24:15.347Z,48.60
2023-02-09T18:26:44.438Z,51.87
2023-02-09T18:29:11.284Z,47.77
2023-02-09T18:31:40.585Z,45.00
2023-02-09T18:34:09.877Z,46.30
2023-02-09T18:36:36.646Z,45.43
2023-02-09T18:39:03.502Z,58.03
2023-02-09T18:41:30.298Z,47.73
2023-02-09T18:43:59.519Z,53.70
2023-02-09T18:46:28.584Z,48.30
2023-02-09T18:48:55.376Z,52.13
2023-02-09T18:51:22.492Z,56.77
2023-02-09T18:53:51.262Z,45.83
2023-02-09T18:56:25.802Z,53.13
2023-02-09T18:58:52.652Z,54.10
2023-02-09T19:01:20.247Z,48.20
2023-02-09T19:03:51.482Z,52.50
2023-02-09T19:06:20.463Z,50.80
2023-02-09T19:08:47.580Z,58.57
2023-02-09T19:11:15.374Z,52.00
2023-02-09T19:13:42.242Z,58.70
2023-02-09T19:16:12.326Z,53.60
2023-02-09T19:18:39.566Z,56.70
2023-02-09T19:21:09.068Z,51.70
2023-02-09T19:23:35.858Z,52.93
2023-02-09T19:26:05.472Z,57.33
2023-02-09T19:28:32.292Z,54.47
2023-02-09T19:30:59.148Z,58.73
2023-02-09T19:33:25.941Z,59.43
2023-02-09T19:36:01.327Z,59.93
2023-02-09T19:38:30.618Z,50.43
2023-02-09T19:41:10.388Z,60.17
2023-02-09T19:43:38.212Z,57.90
2023-02-09T19:46:05.868Z,50.30
2023-02-09T19:48:35.142Z,60.97
2023-02-09T19:51:01.950Z,54.73
2023-02-09T19:53:28.725Z,55.70
2023-02-09T19:55:55.764Z,58.87
2023-02-09T19:58:22.779Z,59.87
2023-02-09T20:00:50.393Z,57.80
2023-02-09T20:03:19.682Z,56.17
2023-02-09T20:05:46.745Z,62.43
2023-02-09T20:08:15.916Z,59.83
2023-02-09T20:10:44.195Z,52.13
2023-02-09T20:13:15.391Z,60.90
2023-02-09T20:15:43.589Z,61.27
2023-02-09T20:18:11.450Z,57.80
2023-02-09T20:20:45.467Z,53.80
2023-02-09T20:23:12.503Z,60.50
2023-02-09T20:25:42.979Z,57.07
2023-02-09T20:28:12.917Z,52.57
2023-02-09T20:30:43.948Z,55.70
2023-02-09T20:33:11.048Z,59.13
2023-02-09T20:35:41.761Z,53.77
2023-02-09T20:38:08.641Z,60.03
2023-02-09T20:40:35.594Z,61.50
2023-02-09T20:43:20.807Z,59.67
2023-02-09T20:46:08.688Z,56.10
2023-02-09T20:48:35.494Z,61.03
2023-02-09T20:51:05.131Z,58.70
2023-02-09T20:53:32.049Z,58.43
2023-02-09T20:56:00.939Z,57.27
2023-02-09T20:58:27.720Z,58.23
2023-02-09T21:00:54.565Z,68.03
2023-02-09T21:03:23.486Z,54.97
2023-02-09T21:05:50.250Z,59.10
2023-02-09T21:08:17.067Z,57.90
2023-02-09T21:10:46.465Z,60.60
2023-02-09T21:13:13.392Z,55.37
2023-02-09T21:15:43.097Z,58.27
2023-02-09T21:18:10.034Z,57.07
2023-02-09T21:20:39.332Z,57.50
2023-02-09T21:23:08.261Z,53.67
2023-02-09T21:25:35.912Z,60.73
2023-02-09T21:28:02.773Z,51.87
2023-02-09T21:30:29.708Z,57.00
2023-02-09T21:33:00.568Z,44.33
2023-02-09T21:35:27.355Z,49.63
2023-02-09T21:37:56.291Z,49.63
2023-02-09T21:40:23.199Z,46.60
2023-02-09T21:42:52.547Z,48.50
2023-02-09T21:45:21.627Z,47.17
2023-02-09T21:47:48.448Z,47.27
2023-02-09T21:50:17.692Z,54.17
2023-02-09T21:52:44.485Z,45.00
2023-02-09T21:55:14.043Z,48.40
2023-02-09T21:57:41.065Z,47.17
2023-02-09T22:00:09.436Z,48.47
2023-02-09T22:02:36.210Z,48.40
2023-02-09T22:05:03.124Z,45.73
2023-02-09T22:07:29.898Z,52.47
2023-02-09T22:09:56.726Z,47.27
2023-02-09T22:12:26.006Z,53.63
2023-02-09T22:14:52.788Z,51.23
2023-02-09T22:17:19.542Z,49.40
2023-02-09T22:19:46.535Z,49.50
2023-02-09T22:22:13.344Z,41.73
2023-02-09T22:24:40.203Z,56.73
2023-02-09T22:27:07.019Z,51.07
2023-02-09T22:29:34.528Z,45.57
2023-02-09T22:32:01.427Z,50.17
2023-02-09T22:34:28.188Z,42.93
2023-02-09T22:36:55.027Z,47.83
2023-02-09T22:39:21.964Z,46.67
2023-02-09T22:41:48.900Z,46.17
2023-02-09T22:44:16.882Z,50.57
2023-02-09T22:46:46.775Z,47.87
2023-02-09T22:49:16.922Z,52.87
2023-02-09T22:51:43.952Z,47.80
2023-02-09T22:54:10.970Z,51.70
2023-02-09T22:56:37.893Z,57.47
2023-02-09T22:59:04.705Z,50.47
2023-02-09T23:01:31.572Z,55.87
2023-02-09T23:03:58.734Z,48.43
2023-02-09T23:06:30.031Z,46.43
2023-02-09T23:09:00.674Z,49.40
2023-02-09T23:11:28.016Z,49.97
2023-02-09T23:14:08.960Z,47.33
2023-02-09T23:16:36.394Z,50.23
2023-02-09T23:19:05.446Z,45.80
2023-02-09T23:21:34.340Z,55.33
2023-02-09T23:24:03.675Z,48.33
2023-02-09T23:26:33.153Z,46.57
2023-02-09T23:29:01.430Z,47.03
2023-02-09T23:31:28.470Z,43.90
2023-02-09T23:33:55.375Z,47.20
2023-02-09T23:36:25.520Z,49.87
2023-02-09T23:38:55.703Z,48.97
2023-02-09T23:41:22.718Z,42.30
2023-02-09T23:43:51.678Z,47.80
2023-02-09T23:46:20.610Z,49.00
2023-02-09T23:48:49.756Z,45.57
2023-02-09T23:51:26.768Z,41.50
2023-02-09T23:53:56.281Z,42.13
2023-02-09T23:56:23.154Z,41.87
2023-02-09T23:58:53.413Z,40.40
